createdAt,value
2022-10-07T00:00:12.734Z,2.42
2022-10-07T00:03:01.710Z,2.50
2022-10-07T00:05:31.111Z,2.83
2022-10-07T00:08:00.132Z,3.30
2022-10-07T00:10:29.746Z,2.25
2022-10-07T00:13:01.372Z,2.42
2022-10-07T00:15:30.512Z,4.38
2022-10-07T00:17:59.519Z,2.20
2022-10-07T00:20:29.098Z,2.20
2022-10-07T00:25:27.104Z,3.33
2022-10-07T00:27:56.395Z,2.47
2022-10-07T00:30:26.852Z,3.22
2022-10-07T00:32:55.922Z,3.55
2022-10-07T00:35:25.196Z,2.92
2022-10-07T00:37:54.584Z,2.80
2022-10-07T00:40:23.595Z,3.03
2022-10-07T00:42:53.132Z,2.80
2022-10-07T00:45:23.266Z,3.50
2022-10-07T00:47:53.653Z,2.92
2022-10-07T00:50:26.815Z,3.50
2022-10-07T00:52:58.808Z,2.92
2022-10-07T00:55:30.906Z,2.40
2022-10-07T00:58:03.974Z,2.78
2022-10-07T01:00:34.505Z,2.30
2022-10-07T01:03:05.335Z,2.28
2022-10-07T01:05:35.342Z,3.08
2022-10-07T01:08:05.631Z,2.90
2022-10-07T01:13:18.435Z,2.33
2022-10-07T01:15:56.583Z,2.75
2022-10-07T01:18:33.408Z,2.67
2022-10-07T01:21:08.372Z,3.15
2022-10-07T01:23:57.739Z,3.70
2022-10-07T01:26:49.862Z,2.75
2022-10-07T01:29:23.924Z,2.80
2022-10-07T01:32:00.179Z,3.20
2022-10-07T01:34:30.371Z,3.30
2022-10-07T01:37:02.262Z,3.20
2022-10-07T01:39:38.585Z,4.18
2022-10-07T01:42:09.531Z,4.68
2022-10-07T01:44:40.518Z,3.38
2022-10-07T01:47:09.500Z,3.33
2022-10-07T01:49:38.706Z,4.13
2022-10-07T01:52:24.314Z,2.88
2022-10-07T01:55:20.254Z,3.35
2022-10-07T01:58:05.141Z,3.90
2022-10-07T02:00:39.563Z,4.30
2022-10-07T02:03:31.398Z,3.22
2022-10-07T02:06:07.702Z,3.17
2022-10-07T02:08:43.359Z,3.33
2022-10-07T02:11:16.963Z,3.80
2022-10-07T02:14:01.012Z,3.33
2022-10-07T02:16:41.041Z,3.40
2022-10-07T02:19:15.602Z,4.03
2022-10-07T02:21:49.224Z,3.38
2022-10-07T02:24:22.523Z,4.63
2022-10-07T02:26:53.398Z,3.60
2022-10-07T02:29:25.857Z,3.97
2022-10-07T02:32:02.797Z,3.40
2022-10-07T02:34:33.843Z,3.50
2022-10-07T02:37:07.547Z,3.42
2022-10-07T02:39:37.092Z,3.67
2022-10-07T02:42:13.912Z,3.40
2022-10-07T02:44:49.439Z,3.85
2022-10-07T02:47:26.211Z,4.22
2022-10-07T02:50:00.203Z,4.32
2022-10-07T02:52:32.594Z,5.20
2022-10-07T02:55:06.256Z,3.70
2022-10-07T02:57:50.484Z,3.70
2022-10-07T03:00:22.000Z,4.03
2022-10-07T03:02:54.823Z,3.95
2022-10-07T03:05:28.175Z,3.63
2022-10-07T03:08:03.920Z,4.03
2022-10-07T03:10:34.637Z,3.28
2022-10-07T03:13:05.937Z,4.18
2022-10-07T03:15:42.603Z,4.53
2022-10-07T03:18:28.267Z,5.13
2022-10-07T03:21:07.378Z,4.38
2022-10-07T03:23:37.194Z,3.88
2022-10-07T03:26:06.906Z,3.60
2022-10-07T03:28:37.710Z,3.22
2022-10-07T03:31:12.118Z,4.38
2022-10-07T03:33:46.609Z,3.60
2022-10-07T03:36:16.237Z,4.22
2022-10-07T03:38:48.052Z,4.35
2022-10-07T03:41:17.376Z,4.20
2022-10-07T03:43:47.212Z,4.20
2022-10-07T03:46:23.532Z,3.80
2022-10-07T03:48:53.458Z,4.10
2022-10-07T03:51:22.858Z,4.63
2022-10-07T03:53:54.636Z,4.00
2022-10-07T03:56:24.507Z,4.32
2022-10-07T03:58:53.832Z,3.78
2022-10-07T04:01:24.832Z,4.32
2022-10-07T04:03:59.012Z,4.38
2022-10-07T04:06:29.230Z,4.70
2022-10-07T04:08:58.928Z,4.15
2022-10-07T04:11:28.136Z,5.35
2022-10-07T04:14:00.793Z,3.65
2022-10-07T04:16:37.727Z,4.72
2022-10-07T04:19:09.437Z,4.47
2022-10-07T04:21:38.477Z,3.83
2022-10-07T04:24:07.718Z,4.97
2022-10-07T04:26:38.943Z,5.85
2022-10-07T04:29:07.975Z,5.15
2022-10-07T04:31:39.046Z,4.07
2022-10-07T04:34:08.604Z,4.50
2022-10-07T04:36:41.796Z,5.10
2022-10-07T04:39:19.005Z,4.50
2022-10-07T04:41:56.309Z,5.22
2022-10-07T04:44:31.008Z,4.57
2022-10-07T04:47:09.599Z,6.50
2022-10-07T04:49:40.832Z,4.32
2022-10-07T04:52:11.658Z,4.40
2022-10-07T04:54:43.244Z,4.45
2022-10-07T04:57:13.679Z,5.65
2022-10-07T04:59:43.892Z,4.22
2022-10-07T05:02:18.571Z,4.63
2022-10-07T05:04:48.391Z,5.68
2022-10-07T05:07:18.489Z,4.70
2022-10-07T05:09:47.805Z,5.63
2022-10-07T05:12:18.412Z,4.50
2022-10-07T05:14:48.341Z,5.22
2022-10-07T05:17:20.431Z,5.57
2022-10-07T05:19:49.751Z,5.00
2022-10-07T05:22:18.785Z,4.90
2022-10-07T05:24:48.856Z,4.90
2022-10-07T05:27:17.851Z,4.95
2022-10-07T05:29:47.036Z,4.45
2022-10-07T05:32:16.126Z,4.72
2022-10-07T05:34:46.732Z,6.07
2022-10-07T05:37:16.285Z,7.38
2022-10-07T05:39:45.595Z,5.60
2022-10-07T05:42:21.289Z,5.60
2022-10-07T05:44:57.368Z,6.55
2022-10-07T05:47:27.154Z,7.75
2022-10-07T05:49:58.807Z,6.72
2022-10-07T05:52:28.799Z,6.97
2022-10-07T05:57:28.381Z,5.15
2022-10-07T05:59:58.977Z,6.00
2022-10-07T06:02:29.399Z,6.45
2022-10-07T06:05:01.065Z,6.57
2022-10-07T06:07:30.645Z,6.43
2022-10-07T06:10:18.820Z,7.22
2022-10-07T06:13:15.157Z,7.35
2022-10-07T06:15:44.817Z,7.63
2022-10-07T06:18:13.854Z,6.50
2022-10-07T06:20:55.445Z,7.97
2022-10-07T06:23:26.257Z,6.20
2022-10-07T06:25:59.584Z,6.88
2022-10-07T06:28:34.746Z,7.25
2022-10-07T06:31:06.900Z,6.10
2022-10-07T06:33:38.193Z,6.45
2022-10-07T06:36:12.423Z,4.88
2022-10-07T06:38:46.809Z,5.30
2022-10-07T06:41:17.282Z,4.70
2022-10-07T06:43:47.808Z,4.90
2022-10-07T06:46:19.649Z,5.57
2022-10-07T06:48:51.836Z,5.07
2022-10-07T06:53:57.652Z,5.32
2022-10-07T06:56:28.779Z,4.68
2022-10-07T06:58:58.678Z,4.85
2022-10-07T07:01:36.273Z,4.32
2022-10-07T07:06:39.578Z,4.80
2022-10-07T07:09:11.060Z,4.63
2022-10-07T07:11:45.225Z,4.93
2022-10-07T07:14:27.276Z,4.35
2022-10-07T07:17:04.048Z,3.85
2022-10-07T07:19:33.430Z,4.53
2022-10-07T07:24:34.753Z,3.65
2022-10-07T07:27:04.007Z,3.40
2022-10-07T07:29:35.444Z,3.67
2022-10-07T07:32:06.311Z,4.38
2022-10-07T07:34:38.966Z,3.72
2022-10-07T07:37:11.594Z,3.42
2022-10-07T07:39:47.626Z,3.13
2022-10-07T07:42:19.514Z,2.63
2022-10-07T07:44:50.219Z,2.92
2022-10-07T07:47:22.208Z,3.00
2022-10-07T07:49:52.298Z,3.25
2022-10-07T07:52:28.911Z,2.47
2022-10-07T07:55:00.366Z,3.38
2022-10-07T07:57:30.729Z,3.72
2022-10-07T08:00:06.426Z,3.25
2022-10-07T08:03:01.259Z,2.22
2022-10-07T08:05:30.919Z,3.90
2022-10-07T08:08:03.279Z,2.75
2022-10-07T08:10:32.475Z,2.42
2022-10-07T08:13:01.701Z,4.10
2022-10-07T08:15:31.145Z,3.03
2022-10-07T08:18:00.350Z,2.60
2022-10-07T08:20:30.418Z,3.33
2022-10-07T08:23:01.265Z,2.45
2022-10-07T08:25:31.823Z,3.15
2022-10-07T08:28:04.364Z,2.08
2022-10-07T08:30:34.279Z,1.98
2022-10-07T08:33:03.565Z,2.70
2022-10-07T08:35:32.747Z,2.80
2022-10-07T08:38:01.889Z,2.28
2022-10-07T08:40:32.709Z,2.50
2022-10-07T08:43:02.477Z,2.63
2022-10-07T08:48:08.256Z,2.25
2022-10-07T08:50:50.545Z,3.38
2022-10-07T08:53:24.739Z,2.33
2022-10-07T08:56:02.534Z,2.75
2022-10-07T08:58:44.925Z,2.65
2022-10-07T09:01:28.135Z,2.15
2022-10-07T09:04:07.146Z,2.75
2022-10-07T09:06:43.641Z,2.45
2022-10-07T09:09:16.906Z,3.10
2022-10-07T09:11:50.892Z,2.13
2022-10-07T09:14:28.626Z,2.10
2022-10-07T09:17:03.471Z,2.47
2022-10-07T09:19:38.274Z,2.45
2022-10-07T09:22:17.729Z,2.85
2022-10-07T09:24:49.178Z,2.17
2022-10-07T09:27:23.076Z,2.78
2022-10-07T09:29:52.304Z,2.63
2022-10-07T09:32:22.733Z,1.35
2022-10-07T09:34:52.383Z,3.53
2022-10-07T09:37:24.215Z,3.33
2022-10-07T09:39:54.832Z,2.30
2022-10-07T09:42:35.091Z,2.15
2022-10-07T09:45:19.065Z,1.58
2022-10-07T09:47:52.711Z,1.52
2022-10-07T09:50:38.218Z,2.17
2022-10-07T09:53:17.907Z,1.98
2022-10-07T09:55:47.748Z,1.85
2022-10-07T09:58:26.100Z,1.95
2022-10-07T10:00:58.001Z,1.88
2022-10-07T10:03:32.841Z,2.10
2022-10-07T10:06:03.236Z,1.95
2022-10-07T10:08:35.262Z,1.85
2022-10-07T10:11:07.101Z,2.25
2022-10-07T10:13:40.824Z,2.40
2022-10-07T10:16:34.307Z,2.17
2022-10-07T10:19:05.416Z,2.30
2022-10-07T10:21:36.793Z,1.60
2022-10-07T10:24:08.132Z,1.50
2022-10-07T10:27:03.225Z,1.77
2022-10-07T10:29:56.070Z,2.20
2022-10-07T10:33:07.249Z,3.72
2022-10-07T10:35:44.088Z,1.90
2022-10-07T10:38:33.208Z,2.58
2022-10-07T10:43:47.302Z,2.20
2022-10-07T10:46:35.452Z,1.70
2022-10-07T10:49:17.145Z,1.65
2022-10-07T10:52:12.425Z,1.92
2022-10-07T10:54:55.667Z,2.65
2022-10-07T10:57:35.472Z,2.45
2022-10-07T11:00:11.290Z,1.88
2022-10-07T11:03:16.655Z,1.50
2022-10-07T11:05:47.863Z,1.67
2022-10-07T11:08:25.278Z,3.17
2022-10-07T11:10:59.814Z,2.55
2022-10-07T11:13:36.999Z,2.75
2022-10-07T11:16:11.263Z,3.38
2022-10-07T11:18:46.741Z,1.95
2022-10-07T11:21:26.447Z,2.75
2022-10-07T11:24:02.715Z,2.83
2022-10-07T11:26:38.204Z,2.15
2022-10-07T11:29:19.395Z,3.55
2022-10-07T11:31:57.429Z,2.20
2022-10-07T11:34:36.369Z,2.25
2022-10-07T11:37:12.361Z,2.17
2022-10-07T11:39:43.128Z,3.42
2022-10-07T11:42:18.092Z,1.60
2022-10-07T11:44:57.162Z,1.63
2022-10-07T11:47:32.687Z,2.60
2022-10-07T11:50:09.677Z,2.22
2022-10-07T11:52:45.519Z,1.83
2022-10-07T11:55:24.232Z,3.75
2022-10-07T11:57:58.954Z,1.90
2022-10-07T12:00:31.753Z,2.20
2022-10-07T12:03:33.613Z,1.92
2022-10-07T12:06:12.168Z,1.67
2022-10-07T12:08:42.997Z,2.33
2022-10-07T12:11:48.512Z,1.92
2022-10-07T12:14:44.774Z,2.03
2022-10-07T12:17:28.257Z,2.20
2022-10-07T12:20:37.264Z,2.17
2022-10-07T12:23:51.212Z,2.63
2022-10-07T12:26:51.440Z,2.28
2022-10-07T12:29:29.070Z,2.53
2022-10-07T12:31:58.816Z,3.28
2022-10-07T12:34:44.875Z,2.90
2022-10-07T12:37:50.429Z,2.72
2022-10-07T12:40:29.410Z,2.72
2022-10-07T12:43:10.686Z,2.58
2022-10-07T12:45:44.039Z,2.83
2022-10-07T12:48:20.416Z,2.90
2022-10-07T12:50:54.613Z,2.30
2022-10-07T12:53:27.922Z,2.63
2022-10-07T12:56:02.159Z,2.85
2022-10-07T12:59:33.467Z,3.63
2022-10-07T13:02:44.632Z,2.42
2022-10-07T13:05:44.821Z,2.85
2022-10-07T13:08:58.790Z,2.55
2022-10-07T13:11:57.365Z,2.78
2022-10-07T13:14:34.657Z,2.90
2022-10-07T13:17:17.618Z,2.63
2022-10-07T13:19:57.402Z,4.38
2022-10-07T13:22:27.838Z,3.47
2022-10-07T13:25:00.587Z,3.25
2022-10-07T13:27:32.774Z,2.67
2022-10-07T13:30:07.548Z,2.33
2022-10-07T13:32:39.299Z,2.25
2022-10-07T13:35:31.817Z,2.40
2022-10-07T13:38:03.714Z,2.75
2022-10-07T13:40:35.937Z,3.30
2022-10-07T13:43:09.455Z,2.83
2022-10-07T13:45:47.358Z,2.47
2022-10-07T13:48:21.170Z,2.90
2022-10-07T13:50:54.021Z,2.45
2022-10-07T13:53:27.828Z,2.70
2022-10-07T13:56:14.039Z,2.60
2022-10-07T13:58:47.432Z,2.60
2022-10-07T14:01:18.806Z,1.80
2022-10-07T14:04:25.430Z,3.47
2022-10-07T14:06:58.767Z,2.33
2022-10-07T14:09:57.267Z,2.50
2022-10-07T14:12:31.479Z,2.30
2022-10-07T14:15:04.223Z,2.55
2022-10-07T14:17:45.497Z,2.10
2022-10-07T14:20:21.905Z,2.03
2022-10-07T14:22:57.371Z,2.15
2022-10-07T14:25:29.608Z,2.30
2022-10-07T14:28:18.827Z,2.40
2022-10-07T14:31:26.123Z,2.17
2022-10-07T14:34:19.512Z,2.65
2022-10-07T14:37:02.475Z,1.80
2022-10-07T14:39:39.014Z,2.13
2022-10-07T14:42:14.569Z,2.13
2022-10-07T14:44:47.909Z,2.17
2022-10-07T14:47:21.030Z,1.55
2022-10-07T14:49:53.151Z,2.20
2022-10-07T14:52:28.161Z,2.08
2022-10-07T14:54:59.684Z,1.92
2022-10-07T14:57:31.364Z,1.63
2022-10-07T15:00:01.050Z,1.90
2022-10-07T15:02:33.526Z,2.30
2022-10-07T15:05:09.871Z,2.42
2022-10-07T15:07:44.466Z,2.67
2022-10-07T15:10:18.473Z,1.90
2022-10-07T15:12:48.658Z,2.22
2022-10-07T15:15:18.996Z,2.45
2022-10-07T15:17:48.052Z,2.05
2022-10-07T15:20:19.114Z,2.33
2022-10-07T15:22:52.661Z,2.22
2022-10-07T15:25:22.811Z,2.53
2022-10-07T15:27:51.803Z,2.80
2022-10-07T15:30:20.977Z,2.35
2022-10-07T15:32:50.123Z,2.83
2022-10-07T15:35:20.780Z,2.75
2022-10-07T15:37:51.547Z,2.38
2022-10-07T15:40:20.851Z,2.85
2022-10-07T15:42:49.771Z,3.35
2022-10-07T15:45:20.621Z,3.38
2022-10-07T15:50:26.519Z,4.45
2022-10-07T15:52:57.049Z,3.00
2022-10-07T15:55:26.926Z,2.95
2022-10-07T15:57:56.642Z,3.33
2022-10-07T16:00:27.620Z,2.90
2022-10-07T16:03:03.291Z,4.85
2022-10-07T16:05:36.860Z,3.17
2022-10-07T16:08:07.279Z,3.80
2022-10-07T16:10:41.154Z,3.38
2022-10-07T16:13:14.232Z,3.30
2022-10-07T16:18:15.653Z,3.67
2022-10-07T16:20:46.775Z,4.07
2022-10-07T16:23:15.725Z,4.30
2022-10-07T16:25:49.341Z,5.05
2022-10-07T16:28:35.884Z,4.82
2022-10-07T16:31:09.136Z,4.40
2022-10-07T16:33:38.895Z,5.03
2022-10-07T16:36:16.677Z,6.22
2022-10-07T16:38:48.281Z,5.18
2022-10-07T16:41:20.513Z,5.10
2022-10-07T16:43:54.569Z,6.38
2022-10-07T16:46:32.006Z,5.80
2022-10-07T16:49:28.082Z,6.00
2022-10-07T16:52:01.949Z,4.88
2022-10-07T16:54:56.111Z,5.60
2022-10-07T16:57:30.154Z,7.18
2022-10-07T17:00:24.172Z,6.72
2022-10-07T17:02:58.148Z,9.20
2022-10-07T17:05:57.103Z,8.45
2022-10-07T17:08:39.401Z,10.70
2022-10-07T17:11:36.638Z,8.13
2022-10-07T17:14:19.437Z,8.40
2022-10-07T17:16:54.241Z,10.68
2022-10-07T17:19:27.634Z,12.70
2022-10-07T17:22:21.480Z,11.73
2022-10-07T17:24:57.167Z,16.48
2022-10-07T17:27:30.424Z,15.25
2022-10-07T17:30:01.989Z,10.85
2022-10-07T17:32:56.107Z,8.35
2022-10-07T17:35:30.726Z,9.95
2022-10-07T17:38:24.157Z,6.32
2022-10-07T17:40:58.544Z,7.82
2022-10-07T17:43:31.866Z,5.85
2022-10-07T17:46:06.898Z,5.57
2022-10-07T17:49:05.174Z,4.50
2022-10-07T17:51:39.901Z,5.57
2022-10-07T17:54:09.650Z,5.28
2022-10-07T17:56:40.285Z,5.47
2022-10-07T17:59:09.473Z,5.93
2022-10-07T18:01:38.512Z,4.75
2022-10-07T18:06:39.897Z,5.28
2022-10-07T18:09:10.554Z,9.30
2022-10-07T18:11:58.275Z,8.55
2022-10-07T18:14:52.547Z,7.40
2022-10-07T18:17:24.691Z,7.20
2022-10-07T18:19:54.332Z,6.13
2022-10-07T18:22:24.403Z,5.82
2022-10-07T18:24:57.204Z,5.45
2022-10-07T18:27:28.199Z,6.57
2022-10-07T18:29:58.542Z,6.68
2022-10-07T18:32:27.703Z,5.85
2022-10-07T18:34:56.658Z,5.97
2022-10-07T18:37:25.980Z,7.25
2022-10-07T18:39:54.948Z,6.35
2022-10-07T18:42:24.411Z,7.72
2022-10-07T18:44:55.052Z,9.65
2022-10-07T18:47:24.011Z,13.80
2022-10-07T18:49:53.556Z,18.00
2022-10-07T18:52:22.467Z,19.77
2022-10-07T18:54:51.676Z,18.95
2022-10-07T18:57:21.856Z,19.48
2022-10-07T18:59:50.990Z,22.10
2022-10-07T19:02:21.661Z,22.40
2022-10-07T19:04:50.958Z,22.90
2022-10-07T19:07:19.872Z,20.60
2022-10-07T19:09:48.931Z,21.17
2022-10-07T19:12:35.525Z,19.23
2022-10-07T19:15:08.064Z,19.25
2022-10-07T19:17:40.723Z,21.02
2022-10-07T19:20:12.352Z,21.75
2022-10-07T19:22:42.026Z,19.80
2022-10-07T19:25:40.620Z,22.50
2022-10-07T19:28:09.903Z,21.05
2022-10-07T19:30:38.904Z,21.42
2022-10-07T19:33:10.900Z,20.75
2022-10-07T19:35:40.226Z,19.02
2022-10-07T19:38:10.175Z,19.85
2022-10-07T19:40:43.075Z,20.80
2022-10-07T19:43:13.623Z,21.38
2022-10-07T19:45:44.144Z,21.05
2022-10-07T19:48:15.408Z,24.13
2022-10-07T19:50:46.108Z,29.40
2022-10-07T19:53:16.848Z,25.40
2022-10-07T19:55:47.473Z,24.38
2022-10-07T19:58:16.658Z,26.38
2022-10-07T20:00:45.874Z,21.65
2022-10-07T20:03:16.589Z,19.75
2022-10-07T20:05:45.658Z,20.85
2022-10-07T20:08:14.619Z,21.67
2022-10-07T20:10:43.852Z,23.30
2022-10-07T20:13:12.803Z,22.15
2022-10-07T20:15:44.083Z,23.20
2022-10-07T20:18:13.423Z,23.88
2022-10-07T20:20:44.256Z,21.60
2022-10-07T20:23:13.723Z,21.25
2022-10-07T20:25:43.419Z,19.38
2022-10-07T20:28:12.813Z,20.02
2022-10-07T20:30:41.803Z,20.10
2022-10-07T20:33:11.014Z,19.77
2022-10-07T20:35:39.953Z,17.77
2022-10-07T20:38:10.376Z,21.80
2022-10-07T20:40:57.322Z,19.90
2022-10-07T20:43:27.633Z,20.08
2022-10-07T20:45:59.477Z,22.40
2022-10-07T20:48:31.761Z,20.00
2022-10-07T20:51:08.370Z,21.08
2022-10-07T20:53:40.267Z,20.85
2022-10-07T20:56:09.753Z,22.08
2022-10-07T20:58:38.708Z,21.60
2022-10-07T21:01:09.741Z,25.23
2022-10-07T21:03:39.472Z,24.02
2022-10-07T21:06:09.476Z,27.40
2022-10-07T21:08:39.988Z,23.30
2022-10-07T21:11:09.078Z,22.50
2022-10-07T21:13:38.299Z,21.45
2022-10-07T21:16:08.088Z,24.55
2022-10-07T21:18:38.876Z,19.73
2022-10-07T21:21:11.628Z,17.98
2022-10-07T21:23:42.202Z,19.05
2022-10-07T21:26:12.389Z,18.48
2022-10-07T21:28:41.727Z,18.50
2022-10-07T21:31:17.491Z,18.73
2022-10-07T21:33:48.910Z,18.77
2022-10-07T21:36:21.143Z,18.65
2022-10-07T21:38:58.374Z,18.50
2022-10-07T21:41:31.153Z,18.77
2022-10-07T21:44:00.741Z,18.92
2022-10-07T21:46:31.990Z,19.98
2022-10-07T21:49:01.180Z,19.40
2022-10-07T21:51:32.271Z,20.80
2022-10-07T21:54:03.691Z,18.08
2022-10-07T21:56:34.507Z,18.75
2022-10-07T21:59:05.570Z,18.83
2022-10-07T22:01:35.083Z,21.00
2022-10-07T22:04:04.906Z,18.95
2022-10-07T22:06:51.762Z,21.00
2022-10-07T22:09:22.379Z,25.50
2022-10-07T22:11:51.450Z,25.40
2022-10-07T22:14:20.596Z,27.63
2022-10-07T22:16:49.907Z,24.83
2022-10-07T22:19:19.043Z,29.92
2022-10-07T22:21:48.307Z,26.88
2022-10-07T22:24:17.291Z,24.17
2022-10-07T22:26:51.099Z,23.38
2022-10-07T22:29:23.091Z,22.63
2022-10-07T22:31:52.343Z,18.02
2022-10-07T22:34:41.572Z,19.40
2022-10-07T22:37:10.915Z,19.17
2022-10-07T22:39:41.147Z,19.75
2022-10-07T22:42:11.559Z,19.05
2022-10-07T22:44:40.597Z,19.30
2022-10-07T22:47:09.805Z,18.08
2022-10-07T22:49:38.751Z,19.38
2022-10-07T22:52:07.885Z,19.80
2022-10-07T22:54:37.031Z,16.85
2022-10-07T22:57:07.515Z,18.50
2022-10-07T22:59:39.902Z,16.58
2022-10-07T23:02:10.495Z,17.10
2022-10-07T23:04:39.562Z,17.75
2022-10-07T23:07:08.771Z,18.17
2022-10-07T23:09:38.016Z,16.15
2022-10-07T23:12:07.098Z,17.17
2022-10-07T23:14:36.121Z,16.88
2022-10-07T23:17:07.447Z,17.45
2022-10-07T23:19:38.312Z,18.73
2022-10-07T23:22:09.592Z,17.45
2022-10-07T23:24:38.861Z,16.92
2022-10-07T23:27:08.214Z,18.60
2022-10-07T23:29:37.185Z,16.92
2022-10-07T23:32:07.889Z,16.80
2022-10-07T23:34:37.168Z,18.00
2022-10-07T23:37:06.102Z,19.33
2022-10-07T23:39:35.209Z,19.08
2022-10-07T23:42:04.463Z,19.95
2022-10-07T23:44:33.569Z,17.90
2022-10-07T23:47:02.492Z,18.52
2022-10-07T23:49:33.115Z,18.15
2022-10-07T23:52:02.125Z,16.55
2022-10-07T23:54:31.042Z,15.27
2022-10-07T23:57:00.185Z,16.17
2022-10-07T23:59:29.199Z,14.82
